Time;durP1;ratioP1;P1;durP2;ratioP2;P2;SDS_P1;SDS_P2;PMS_P1;PMS_P2;Temp;Humidity;BMP_temperature;BMP_pressure;BME280_temperature;BME280_humidity;BME280_pressure;Samples;Min_cycle;Max_cycle;Signal;HPM_P1;HPM_P2
2023/03/05 00:01:19;;;;;;;8.65;2.40;;;;;;;4.65;84.58;102221.75;5047950;28;20033;-92
2023/03/05 00:03:45;;;;;;;7.47;2.35;;;;;;;4.62;84.89;102225.03;5048187;28;20037;-92
2023/03/05 00:06:10;;;;;;;7.72;2.00;;;;;;;4.62;85.13;102219.88;5045546;28;20021;-92
2023/03/05 00:08:36;;;;;;;8.98;2.38;;;;;;;4.61;84.81;102220.66;5047600;28;20048;-91
2023/03/05 00:11:04;;;;;;;7.20;2.00;;;;;;;4.58;84.82;102217.88;5047832;28;20025;-91
2023/03/05 00:13:31;;;;;;;7.43;2.00;;;;;;;4.56;84.66;102219.44;5046701;28;20060;-92
2023/03/05 00:15:57;;;;;;;5.50;1.75;;;;;;;4.54;85.07;102218.44;5045416;28;20024;-91
2023/03/05 00:18:23;;;;;;;6.05;1.92;;;;;;;4.50;84.87;102213.84;5046272;28;20505;-92
2023/03/05 00:20:48;;;;;;;8.05;2.28;;;;;;;4.46;85.26;102211.81;5046832;28;20037;-92
2023/03/05 00:23:14;;;;;;;6.15;2.15;;;;;;;4.43;85.18;102211.63;5047904;28;20035;-92
2023/03/05 00:25:40;;;;;;;8.98;2.70;;;;;;;4.39;84.99;102219.94;5047095;28;20029;-92
2023/03/05 00:28:06;;;;;;;10.73;2.30;;;;;;;4.34;85.81;102223.09;5045973;28;20059;-92
2023/03/05 00:30:33;;;;;;;8.93;2.35;;;;;;;4.30;85.85;102213.34;5046693;28;20390;-92
2023/03/05 00:32:58;;;;;;;6.38;2.35;;;;;;;4.29;86.34;102218.41;5046433;28;20053;-92
2023/03/05 00:35:24;;;;;;;6.32;2.30;;;;;;;4.28;86.02;102204.59;5045030;28;20231;-91
2023/03/05 00:37:49;;;;;;;6.57;2.25;;;;;;;4.26;85.94;102203.59;5046998;28;20040;-91
2023/03/05 00:40:15;;;;;;;7.97;2.53;;;;;;;4.23;86.37;102203.38;5045959;28;20021;-91
2023/03/05 00:42:40;;;;;;;8.73;2.35;;;;;;;4.24;86.53;102200.00;5046709;28;20025;-92
2023/03/05 00:45:08;;;;;;;5.30;1.98;;;;;;;4.27;86.34;102196.72;5048161;28;20482;-92
2023/03/05 00:47:34;;;;;;;9.80;2.38;;;;;;;4.25;86.68;102191.47;5046725;28;20029;-92
2023/03/05 00:50:00;;;;;;;6.70;2.47;;;;;;;4.23;86.49;102184.41;5047008;28;20037;-91
2023/03/05 00:52:25;;;;;;;9.18;2.53;;;;;;;4.21;86.49;102188.56;5046152;28;20032;-92
2023/03/05 00:54:51;;;;;;;8.48;2.47;;;;;;;4.21;86.79;102179.13;5045611;28;20039;-92
2023/03/05 00:57:16;;;;;;;6.15;2.17;;;;;;;4.21;87.06;102188.56;5047622;28;20017;-91
2023/03/05 00:59:41;;;;;;;6.47;2.20;;;;;;;4.18;87.48;102184.06;5048087;28;20056;-91
2023/03/05 01:02:07;;;;;;;8.32;2.42;;;;;;;4.18;87.74;102191.81;5046421;28;20486;-92
2023/03/05 01:04:32;;;;;;;9.52;2.22;;;;;;;4.18;87.92;102174.66;5048401;28;20071;-92
2023/03/05 01:06:58;;;;;;;5.22;2.00;;;;;;;4.20;87.89;102184.19;5046136;28;20158;-92
2023/03/05 01:09:26;;;;;;;6.50;2.03;;;;;;;4.21;87.51;102186.88;5046406;28;20395;-91
2023/03/05 01:11:52;;;;;;;7.35;2.05;;;;;;;4.22;87.33;102175.78;5045879;28;20021;-91
2023/03/05 01:14:18;;;;;;;9.27;2.30;;;;;;;4.21;87.07;102168.81;5047006;28;20050;-92
2023/03/05 01:16:43;;;;;;;6.72;2.20;;;;;;;4.19;87.71;102167.81;5046963;28;20036;-91
2023/03/05 01:19:09;;;;;;;6.05;2.42;;;;;;;4.19;88.00;102167.81;5045373;28;20032;-91
2023/03/05 01:21:35;;;;;;;7.63;2.42;;;;;;;4.18;87.94;102159.16;5045777;28;20510;-92
2023/03/05 01:24:00;;;;;;;8.70;2.58;;;;;;;4.18;87.99;102154.00;5044159;28;20025;-92
2023/03/05 01:26:26;;;;;;;7.50;2.40;;;;;;;4.21;87.60;102153.34;5046667;28;20102;-92
2023/03/05 01:28:51;;;;;;;6.63;2.35;;;;;;;4.20;87.69;102150.66;5045707;28;20563;-91
2023/03/05 01:31:17;;;;;;;6.97;2.10;;;;;;;4.16;87.68;102144.41;5046828;28;20513;-92
2023/03/05 01:33:42;;;;;;;5.78;2.20;;;;;;;4.11;87.97;102145.75;5043426;28;20371;-92
2023/03/05 01:36:12;;;;;;;7.63;2.13;;;;;;;4.06;88.65;102136.78;5046982;28;20032;-92
2023/03/05 01:38:37;;;;;;;7.22;2.42;;;;;;;4.00;89.52;102135.56;5045377;28;20035;-92
2023/03/05 01:41:03;;;;;;;8.23;2.15;;;;;;;3.98;89.41;102134.56;5046767;28;20037;-92
2023/03/05 01:43:29;;;;;;;9.18;2.47;;;;;;;3.99;89.77;102127.72;5044387;28;20068;-92
2023/03/05 01:46:20;;;;;;;7.68;2.55;;;;;;;4.00;89.73;102132.97;5045077;28;20116;-91
2023/03/05 01:48:49;;;;;;;10.27;2.78;;;;;;;4.03;89.99;102131.38;5047361;28;20112;-92
2023/03/05 01:51:17;;;;;;;7.13;2.10;;;;;;;4.01;89.88;102120.97;5061483;28;20025;-92
2023/03/05 01:53:43;;;;;;;9.27;2.35;;;;;;;3.98;89.99;102113.94;5048518;28;20029;-93
2023/03/05 01:56:08;;;;;;;7.53;2.30;;;;;;;3.95;90.01;102113.72;5049161;28;20032;-92
2023/03/05 01:58:34;;;;;;;10.32;2.92;;;;;;;3.96;89.92;102114.59;5050422;28;20149;-92
2023/03/05 02:01:00;;;;;;;5.82;2.38;;;;;;;3.95;90.37;102102.50;5050945;28;20037;-92
2023/03/05 02:03:25;;;;;;;5.88;2.28;;;;;;;3.93;90.20;102099.81;5048700;28;20111;-92
2023/03/05 02:05:51;;;;;;;6.68;2.20;;;;;;;3.88;90.52;102095.13;5048972;28;20116;-92
2023/03/05 02:08:20;;;;;;;7.68;2.25;;;;;;;3.88;90.70;102096.03;5048685;28;20028;-91
2023/03/05 02:10:48;;;;;;;6.63;2.10;;;;;;;3.92;90.41;102086.81;5049161;28;20028;-91
2023/03/05 02:13:22;;;;;;;7.60;2.10;;;;;;;3.93;90.31;102083.44;5048569;28;20036;-92
2023/03/05 02:15:48;;;;;;;9.32;2.28;;;;;;;3.94;90.24;102078.41;5047806;28;20094;-91
2023/03/05 02:18:15;;;;;;;6.35;2.00;;;;;;;3.98;90.36;102076.91;5048517;28;20517;-92
2023/03/05 02:20:57;;;;;;;8.43;2.20;;;;;;;4.02;90.23;102084.09;5049597;28;20171;-92
2023/03/05 02:23:27;;;;;;;11.32;2.28;;;;;;;4.04;89.81;102085.09;5047926;28;20107;-91
2023/03/05 02:25:53;;;;;;;8.00;2.22;;;;;;;4.06;89.55;102072.31;5047764;28;20029;-91
2023/03/05 02:28:24;;;;;;;7.45;1.90;;;;;;;4.05;89.50;102073.97;5049745;28;20024;-92
2023/03/05 02:30:50;;;;;;;5.82;2.05;;;;;;;4.09;89.59;102064.78;5049478;28;20153;-91
2023/03/05 02:33:17;;;;;;;6.35;1.98;;;;;;;4.09;89.11;102063.09;5047393;28;20040;-92
2023/03/05 02:35:43;;;;;;;8.38;2.08;;;;;;;4.11;89.26;102058.03;5048172;28;20021;-91
2023/03/05 02:38:09;;;;;;;7.53;2.25;;;;;;;4.08;89.01;102057.84;5048989;28;20036;-91
2023/03/05 02:40:35;;;;;;;7.55;2.28;;;;;;;4.08;89.21;102061.28;5049689;28;20024;-91
2023/03/05 02:43:00;;;;;;;7.20;2.10;;;;;;;4.08;89.06;102061.28;5048807;28;20079;-91
2023/03/05 02:45:25;;;;;;;4.90;1.88;;;;;;;4.05;89.12;102058.50;5048584;28;20021;-91
2023/03/05 02:47:51;;;;;;;5.32;1.80;;;;;;;4.03;89.06;102051.44;5050023;28;20048;-91
2023/03/05 02:50:16;;;;;;;6.88;1.95;;;;;;;3.99;89.01;102048.66;5048805;28;20372;-92
2023/03/05 02:52:41;;;;;;;6.32;1.70;;;;;;;3.99;88.83;102035.75;5048252;28;20627;-91
2023/03/05 02:55:07;;;;;;;6.90;2.08;;;;;;;4.00;89.18;102039.25;5049172;28;20108;-91
2023/03/05 02:57:33;;;;;;;6.18;2.10;;;;;;;3.93;88.55;102031.88;5049443;28;20111;-91
2023/03/05 02:59:58;;;;;;;4.88;1.80;;;;;;;3.89;89.03;102030.75;5047651;28;20035;-92
2023/03/05 03:02:23;;;;;;;6.45;1.90;;;;;;;3.87;88.51;102037.50;5048677;28;20025;-91
2023/03/05 03:04:48;;;;;;;6.18;1.80;;;;;;;3.86;88.60;102029.66;5046255;28;20036;-91
2023/03/05 03:07:15;;;;;;;8.15;1.92;;;;;;;3.85;89.22;102030.44;5046707;28;20025;-92
2023/03/05 03:09:42;;;;;;;7.53;2.00;;;;;;;3.84;88.93;102026.97;5047966;28;20043;-90
2023/03/05 03:12:09;;;;;;;5.07;1.88;;;;;;;3.84;89.58;102021.81;5047564;28;20032;-92
2023/03/05 03:14:38;;;;;;;6.63;2.22;;;;;;;3.83;89.44;102012.28;5047400;28;20067;-91
2023/03/05 03:17:08;;;;;;;6.20;2.28;;;;;;;3.79;89.35;102018.00;5048453;28;20033;-91
2023/03/05 03:19:34;;;;;;;6.57;2.45;;;;;;;3.74;89.71;102017.69;5047703;28;20090;-91
2023/03/05 03:21:59;;;;;;;6.05;1.98;;;;;;;3.71;89.89;102016.56;5049582;28;20492;-91
2023/03/05 03:24:25;;;;;;;7.88;2.22;;;;;;;3.71;89.96;102007.19;5066987;28;20033;-91
2023/03/05 03:26:50;;;;;;;8.57;2.58;;;;;;;3.65;90.02;102014.50;5050317;28;20016;-91
2023/03/05 03:29:16;;;;;;;6.00;2.10;;;;;;;3.59;90.00;101999.47;5069307;28;20062;-91
2023/03/05 03:31:43;;;;;;;7.50;2.63;;;;;;;3.51;90.33;101992.88;5050354;28;20514;-90
2023/03/05 03:34:09;;;;;;;6.40;2.33;;;;;;;3.48;90.74;101985.81;5068265;28;20035;-91
2023/03/05 03:36:34;;;;;;;6.38;2.08;;;;;;;3.47;90.73;101976.28;5049187;28;20028;-92
2023/03/05 03:38:59;;;;;;;7.65;2.38;;;;;;;3.47;91.16;101984.03;5050503;28;20021;-91
2023/03/05 03:41:24;;;;;;;8.55;2.65;;;;;;;3.43;91.11;101982.03;5049477;28;20031;-91
2023/03/05 03:43:50;;;;;;;6.45;2.40;;;;;;;3.42;91.35;101974.22;5048687;28;20028;-91
2023/03/05 03:46:15;;;;;;;8.90;2.80;;;;;;;3.40;91.57;101970.59;5049747;28;20039;-90
2023/03/05 03:48:40;;;;;;;9.85;2.72;;;;;;;3.38;91.69;101969.63;5050624;28;20026;-91
2023/03/05 03:51:06;;;;;;;7.00;2.67;;;;;;;3.36;91.75;101971.19;5049104;28;20020;-91
2023/03/05 03:53:32;;;;;;;7.55;2.40;;;;;;;3.37;91.76;101978.13;5049678;28;20043;-91
2023/03/05 03:55:58;;;;;;;8.63;2.80;;;;;;;3.34;91.71;101978.78;5049421;28;20036;-91
2023/03/05 03:58:24;;;;;;;9.40;2.72;;;;;;;3.31;92.13;101974.31;5049912;28;20385;-91
2023/03/05 04:00:49;;;;;;;8.50;3.00;;;;;;;3.29;92.80;101977.59;5049276;28;20025;-91
2023/03/05 04:03:14;;;;;;;6.50;2.70;;;;;;;3.26;92.51;101970.53;5049525;28;21516;-91
2023/03/05 04:05:40;;;;;;;9.10;3.13;;;;;;;3.26;92.79;101967.97;5047677;28;20024;-92
2023/03/05 04:08:10;;;;;;;6.05;3.60;;;;;;;3.23;92.42;101965.16;5066568;28;20024;-92
2023/03/05 04:10:37;;;;;;;5.93;2.75;;;;;;;3.20;92.45;101964.03;5048093;28;20020;-91
2023/03/05 04:13:02;;;;;;;9.32;3.28;;;;;;;3.19;93.00;101968.31;5048952;28;20505;-91
2023/03/05 04:15:28;;;;;;;8.23;3.40;;;;;;;3.17;93.14;101951.81;5048034;28;20036;-91
2023/03/05 04:17:53;;;;;;;7.30;3.00;;;;;;;3.18;92.78;101953.63;5066924;28;20028;-91
2023/03/05 04:20:18;;;;;;;10.25;3.40;;;;;;;3.17;92.71;101946.69;5047914;28;20048;-90
2023/03/05 04:22:44;;;;;;;8.60;3.30;;;;;;;3.17;92.53;101945.78;5049133;28;20127;-91
2023/03/05 04:25:09;;;;;;;7.40;3.00;;;;;;;3.17;92.66;101951.81;5068400;28;20039;-91
2023/03/05 04:27:36;;;;;;;10.85;3.42;;;;;;;3.18;92.52;101940.75;5066848;28;20097;-92
2023/03/05 04:30:02;;;;;;;6.88;3.08;;;;;;;3.19;92.78;101937.41;5065942;28;20037;-91
2023/03/05 04:32:28;;;;;;;10.75;3.60;;;;;;;3.21;92.73;101937.50;5048583;28;20101;-91
2023/03/05 04:34:55;;;;;;;10.23;3.90;;;;;;;3.22;92.84;101935.03;5049694;28;20079;-90
2023/03/05 04:37:21;;;;;;;10.20;3.60;;;;;;;3.20;93.02;101928.91;5049059;28;20599;-91
2023/03/05 04:39:46;;;;;;;10.65;4.18;;;;;;;3.22;92.75;101926.44;5066885;28;20504;-92
2023/03/05 04:42:11;;;;;;;7.68;3.72;;;;;;;3.22;92.63;101929.88;5068383;28;20651;-92
2023/03/05 04:44:37;;;;;;;7.25;3.75;;;;;;;3.21;92.62;101925.50;5048657;28;20039;-92
2023/03/05 04:47:02;;;;;;;9.40;4.63;;;;;;;3.16;92.21;101929.47;5049736;28;20553;-92
2023/03/05 04:49:28;;;;;;;9.45;4.28;;;;;;;3.12;92.94;101930.03;5049835;28;20032;-92
2023/03/05 04:51:53;;;;;;;10.02;4.38;;;;;;;3.10;93.22;101923.84;5050329;28;20025;-91
2023/03/05 04:54:18;;;;;;;9.93;4.50;;;;;;;3.08;93.34;101922.84;5048333;28;20050;-91
2023/03/05 04:56:44;;;;;;;10.35;4.70;;;;;;;3.10;93.36;101923.84;5066445;28;20481;-92
2023/03/05 04:59:09;;;;;;;9.70;5.13;;;;;;;3.12;93.31;101919.72;5047738;28;20032;-92
2023/03/05 05:01:35;;;;;;;10.02;4.97;;;;;;;3.11;93.00;101917.91;5049632;28;20022;-91
2023/03/05 05:04:00;;;;;;;10.70;4.88;;;;;;;3.09;93.28;101919.50;5048477;28;20034;-92
2023/03/05 05:06:25;;;;;;;9.45;5.10;;;;;;;3.10;92.90;101908.41;5067540;28;20112;-93
2023/03/05 05:08:51;;;;;;;10.90;5.40;;;;;;;3.09;93.24;101911.78;5065963;28;20497;-92
2023/03/05 05:11:17;;;;;;;13.50;5.45;;;;;;;3.10;93.33;101906.75;5049952;28;20023;-92
2023/03/05 05:13:42;;;;;;;10.70;5.10;;;;;;;3.08;93.24;101904.84;5047992;28;20025;-92
2023/03/05 05:16:08;;;;;;;10.02;5.30;;;;;;;3.07;93.48;101897.88;5049870;28;20034;-92
2023/03/05 05:18:33;;;;;;;9.55;6.47;;;;;;;3.06;93.31;101893.53;5049305;28;20024;-92
2023/03/05 05:20:58;;;;;;;11.10;5.50;;;;;;;3.07;93.61;101900.47;5049318;28;20960;-91
2023/03/05 05:23:24;;;;;;;9.38;5.25;;;;;;;3.09;93.57;101897.22;5048479;28;20528;-92
2023/03/05 05:26:00;;;;;;;10.23;5.50;;;;;;;3.09;93.62;101899.78;5066805;28;20059;-92
2023/03/05 05:28:26;;;;;;;10.43;5.50;;;;;;;3.07;93.59;101893.66;5041328;28;20354;-92
2023/03/05 05:30:51;;;;;;;8.75;5.57;;;;;;;3.05;93.71;101889.16;5067194;28;20020;-92
2023/03/05 05:33:16;;;;;;;12.95;5.32;;;;;;;3.06;93.84;101896.13;5048800;28;20031;-93
2023/03/05 05:35:42;;;;;;;10.73;6.07;;;;;;;3.06;94.51;101889.28;5049845;28;20028;-91
2023/03/05 05:38:07;;;;;;;8.23;5.38;;;;;;;3.09;94.05;101891.19;5048276;28;20052;-91
2023/03/05 05:40:32;;;;;;;10.02;5.35;;;;;;;3.08;94.00;101890.28;5048384;28;20083;-92
2023/03/05 05:42:58;;;;;;;10.85;5.72;;;;;;;3.08;94.26;101885.13;5067379;28;20040;-92
2023/03/05 05:45:23;;;;;;;10.25;5.72;;;;;;;3.10;94.21;101885.22;5049577;28;20111;-92
2023/03/05 05:47:48;;;;;;;10.38;6.00;;;;;;;3.08;94.64;101885.13;5049664;28;20498;-92
2023/03/05 05:50:14;;;;;;;11.90;7.55;;;;;;;3.08;94.90;101886.81;5049629;28;20060;-92
2023/03/05 05:52:39;;;;;;;9.32;5.90;;;;;;;3.05;95.12;101884.03;5067417;28;20674;-92
2023/03/05 05:55:05;;;;;;;10.40;5.95;;;;;;;3.06;94.95;101875.53;5048251;28;20031;-92
2023/03/05 05:57:30;;;;;;;10.57;5.70;;;;;;;3.06;94.99;101875.53;5067192;28;20052;-92
2023/03/05 05:59:55;;;;;;;9.73;5.72;;;;;;;3.07;95.35;101872.13;5047671;28;20028;-92
2023/03/05 06:02:21;;;;;;;11.93;6.80;;;;;;;3.06;95.06;101863.53;5049345;28;20046;-92
2023/03/05 06:04:47;;;;;;;10.90;6.03;;;;;;;3.04;95.74;101862.53;5048901;28;20074;-92
2023/03/05 06:07:12;;;;;;;10.00;6.20;;;;;;;3.02;95.64;101865.78;5067582;28;20051;-92
2023/03/05 06:09:37;;;;;;;10.15;6.30;;;;;;;3.02;96.14;101858.94;5048396;28;20035;-92
2023/03/05 06:12:03;;;;;;;11.65;6.30;;;;;;;3.03;96.20;101859.88;5049096;28;20028;-91
2023/03/05 06:14:28;;;;;;;13.05;6.30;;;;;;;3.03;96.17;101862.44;5067722;28;20024;-92
2023/03/05 06:16:54;;;;;;;11.02;5.82;;;;;;;3.05;96.36;101858.28;5049150;28;20020;-92
2023/03/05 06:19:19;;;;;;;9.55;6.10;;;;;;;3.07;96.85;101856.69;5067660;28;20060;-91
2023/03/05 06:21:44;;;;;;;12.65;6.05;;;;;;;3.05;96.58;101853.13;5049180;28;20054;-92
2023/03/05 06:24:11;;;;;;;11.70;6.00;;;;;;;3.03;96.87;101858.16;5068000;28;20489;-92
2023/03/05 06:26:36;;;;;;;10.85;6.57;;;;;;;3.03;96.97;101860.75;5048943;28;20107;-92
2023/03/05 06:29:02;;;;;;;9.48;6.45;;;;;;;3.03;97.02;101855.59;5049383;28;20112;-91
2023/03/05 06:31:28;;;;;;;8.30;6.22;;;;;;;3.05;97.17;101858.28;5067023;28;20036;-91
2023/03/05 06:33:56;;;;;;;15.63;7.05;;;;;;;3.08;97.53;101858.50;5068368;28;20024;-92
2023/03/05 06:36:24;;;;;;;11.52;6.20;;;;;;;3.10;97.37;101859.47;5069735;28;20055;-92
2023/03/05 06:38:51;;;;;;;9.90;6.07;;;;;;;3.13;97.60;101858.03;5052416;28;20028;-91
2023/03/05 06:41:19;;;;;;;9.23;6.13;;;;;;;3.18;97.50;101865.19;5053616;28;20025;-92
2023/03/05 06:43:46;;;;;;;13.63;6.28;;;;;;;3.19;97.31;101856.69;5052619;28;20020;-91
2023/03/05 06:46:17;;;;;;;13.15;6.32;;;;;;;3.22;97.79;101862.91;5053055;28;20375;-92
2023/03/05 06:48:43;;;;;;;10.70;6.05;;;;;;;3.24;97.42;101858.75;5053006;28;20029;-92
2023/03/05 06:51:16;;;;;;;9.27;5.30;;;;;;;3.25;97.39;101857.97;5049528;28;20482;-92
2023/03/05 06:53:42;;;;;;;9.80;5.20;;;;;;;3.25;97.29;101857.97;5070017;28;20028;-92
2023/03/05 06:56:08;;;;;;;11.38;5.30;;;;;;;3.24;97.63;101861.34;5052992;28;20024;-92
2023/03/05 06:58:33;;;;;;;10.32;5.18;;;;;;;3.26;97.70;101858.91;5052344;28;20082;-92
2023/03/05 07:00:59;;;;;;;8.65;4.88;;;;;;;3.27;97.62;101859.00;5052445;28;20028;-92
2023/03/05 07:03:24;;;;;;;8.32;4.78;;;;;;;3.30;97.45;101861.78;5051934;28;20103;-92
2023/03/05 07:05:49;;;;;;;10.05;5.00;;;;;;;3.34;97.77;101856.84;5050928;28;20025;-92
2023/03/05 07:08:15;;;;;;;10.68;5.10;;;;;;;3.35;97.55;101856.06;5070901;28;20085;-93
2023/03/05 07:10:42;;;;;;;8.52;4.80;;;;;;;3.35;97.60;101858.63;5069237;28;20496;-92
2023/03/05 07:13:08;;;;;;;8.88;5.07;;;;;;;3.35;97.73;101856.06;5051104;28;20052;-93
2023/03/05 07:15:37;;;;;;;8.32;5.05;;;;;;;3.33;97.81;101853.34;5070023;28;20028;-92
2023/03/05 07:18:03;;;;;;;9.50;5.07;;;;;;;3.32;97.76;101849.00;5069849;28;20493;-91
2023/03/05 07:20:28;;;;;;;9.10;5.07;;;;;;;3.33;98.00;101852.47;5068272;28;20101;-91
2023/03/05 07:22:54;;;;;;;9.30;5.15;;;;;;;3.38;97.99;101854.56;5049823;28;20079;-92
2023/03/05 07:25:20;;;;;;;9.25;5.10;;;;;;;3.44;98.15;101852.41;5050666;28;20055;-91
2023/03/05 07:27:46;;;;;;;9.40;5.10;;;;;;;3.47;98.03;101854.31;5051291;28;20028;-91
2023/03/05 07:30:12;;;;;;;8.57;4.72;;;;;;;3.51;97.78;101851.16;5051327;28;20144;-92
2023/03/05 07:32:37;;;;;;;7.13;4.50;;;;;;;3.54;97.99;101843.63;5066038;28;20108;-91
2023/03/05 07:35:03;;;;;;;8.60;4.70;;;;;;;3.56;98.23;101838.59;5050882;28;20021;-92
2023/03/05 07:37:28;;;;;;;7.80;4.63;;;;;;;3.58;98.07;101843.06;5068581;28;20039;-92
2023/03/05 07:39:54;;;;;;;9.05;4.22;;;;;;;3.61;97.87;101847.53;5048181;28;20079;-91
2023/03/05 07:42:19;;;;;;;8.02;4.50;;;;;;;3.65;97.76;101853.00;5049588;28;20047;-92
2023/03/05 07:44:44;;;;;;;7.40;4.43;;;;;;;3.65;98.06;101844.38;5067603;28;20029;-91
2023/03/05 07:47:10;;;;;;;7.47;4.22;;;;;;;3.63;97.84;101845.94;5048312;28;20028;-91
2023/03/05 07:49:35;;;;;;;7.78;4.28;;;;;;;3.62;97.83;101845.06;5050288;28;21051;-90
2023/03/05 07:52:01;;;;;;;7.57;4.07;;;;;;;3.64;98.25;101840.91;5050175;28;20494;-92
2023/03/05 07:54:26;;;;;;;8.07;4.03;;;;;;;3.68;98.50;101849.75;5068256;28;20179;-92
2023/03/05 07:56:53;;;;;;;7.55;3.88;;;;;;;3.71;98.01;101846.44;5067691;28;20036;-91
2023/03/05 07:59:18;;;;;;;5.57;3.22;;;;;;;3.71;97.70;101849.94;5049814;28;20077;-91
2023/03/05 08:01:45;;;;;;;6.70;3.60;;;;;;;3.70;97.96;101843.00;5048984;28;20688;-92
2023/03/05 08:04:10;;;;;;;6.75;3.33;;;;;;;3.74;98.07;101844.09;5049192;28;20020;-90
2023/03/05 08:06:39;;;;;;;6.28;3.70;;;;;;;3.75;97.66;101838.16;5049307;28;20043;-91
2023/03/05 08:09:05;;;;;;;6.65;3.40;;;;;;;3.75;97.61;101836.47;5047778;28;20482;-92
2023/03/05 08:11:30;;;;;;;6.95;3.35;;;;;;;3.76;98.31;101827.94;5047559;28;20083;-92
2023/03/05 08:13:58;;;;;;;6.28;3.72;;;;;;;3.82;98.28;101833.53;5044881;28;20052;-92
2023/03/05 08:16:24;;;;;;;7.45;3.70;;;;;;;3.86;98.23;101836.31;5065138;28;20020;-91
2023/03/05 08:18:53;;;;;;;6.60;3.30;;;;;;;3.88;97.64;101822.72;5050069;28;20017;-91
2023/03/05 08:21:25;;;;;;;5.13;3.00;;;;;;;3.92;97.46;101829.84;5067726;28;20040;-91
2023/03/05 08:24:02;;;;;;;6.35;3.00;;;;;;;3.95;96.82;101824.94;5050010;28;20500;-93
2023/03/05 08:26:30;;;;;;;7.28;2.90;;;;;;;4.00;97.42;101820.94;5069156;28;20052;-92
2023/03/05 08:28:55;;;;;;;5.18;2.78;;;;;;;4.05;96.83;101822.94;5052465;28;20044;-93
2023/03/05 08:31:23;;;;;;;4.80;2.53;;;;;;;4.06;96.68;101817.00;5050800;28;20047;-96
2023/03/05 08:33:53;;;;;;;5.72;2.80;;;;;;;4.09;96.92;101809.47;5049529;28;20059;-92
2023/03/05 08:36:19;;;;;;;5.35;2.60;;;;;;;4.15;95.97;101807.28;5069259;28;20109;-92
2023/03/05 08:38:49;;;;;;;6.05;2.50;;;;;;;4.20;96.60;101798.16;5069559;28;20074;-93
2023/03/05 08:41:16;;;;;;;5.88;2.42;;;;;;;4.25;97.24;101794.16;5053518;28;20102;-94
2023/03/05 08:43:45;;;;;;;6.60;2.67;;;;;;;4.29;96.15;101801.31;5051935;28;20031;-96
2023/03/05 08:46:12;;;;;;;5.07;2.38;;;;;;;4.35;96.32;101801.69;5069284;28;20029;-92
2023/03/05 08:48:40;;;;;;;5.05;2.22;;;;;;;4.41;95.74;101792.59;5051484;28;20024;-94
2023/03/05 08:51:18;;;;;;;7.03;2.70;;;;;;;4.46;96.07;101783.44;5051551;28;20028;-93
2023/03/05 08:53:46;;;;;;;5.28;2.33;;;;;;;4.48;95.33;101787.03;5051648;28;20045;-93
2023/03/05 08:56:12;;;;;;;4.95;2.60;;;;;;;4.49;94.94;101788.78;5051850;28;20111;-94
2023/03/05 08:58:47;;;;;;;5.88;2.70;;;;;;;4.54;95.60;101779.66;5051863;28;20016;-94
2023/03/05 09:01:13;;;;;;;6.38;2.17;;;;;;;4.60;95.16;101777.44;5056114;28;20036;-96
2023/03/05 09:03:39;;;;;;;6.35;2.30;;;;;;;4.63;94.28;101780.22;5051671;28;20031;-94
2023/03/05 09:06:07;;;;;;;4.88;2.38;;;;;;;4.63;94.58;101780.22;5052080;28;20020;-95
2023/03/05 09:08:40;;;;;;;4.78;2.22;;;;;;;4.66;94.65;101779.53;5054522;28;20020;-94
2023/03/05 09:11:14;;;;;;;7.13;2.10;;;;;;;4.68;94.20;101773.69;5050894;28;20070;-94
2023/03/05 09:13:40;;;;;;;5.53;2.10;;;;;;;4.69;94.85;101774.56;5052344;28;21474;-95
2023/03/05 09:16:12;;;;;;;5.75;2.20;;;;;;;4.70;94.85;101776.34;5051112;28;20042;-94
2023/03/05 09:18:39;;;;;;;7.40;2.10;;;;;;;4.70;94.75;101772.06;5052133;28;20045;-95
2023/03/05 09:21:18;;;;;;;5.82;2.20;;;;;;;4.74;95.94;101769.72;5052730;28;20043;-94
2023/03/05 09:23:47;;;;;;;3.95;1.85;;;;;;;4.84;96.17;101766.88;5054504;28;20091;-96
2023/03/05 09:26:20;;;;;;;6.83;2.20;;;;;;;4.94;95.18;101768.31;5029601;23;20586;-95
2023/03/05 09:28:54;;;;;;;5.20;2.30;;;;;;;5.02;94.71;101761.94;5015777;28;20288;-94
2023/03/05 09:31:30;;;;;;;5.22;2.70;;;;;;;5.07;93.57;101752.81;5004572;28;20025;-94
2023/03/05 09:34:04;;;;;;;4.78;2.30;;;;;;;5.14;93.86;101761.78;5014441;28;20053;-95
2023/03/05 09:38:59;;;;;;;4.47;1.90;;;;;;;5.27;93.26;101747.91;5061865;22;20048;-95
2023/03/05 09:41:35;;;;;;;4.30;2.05;;;;;;;5.35;93.05;101757.91;5031422;28;20608;-94
2023/03/05 09:44:18;;;;;;;4.82;2.05;;;;;;;5.42;92.67;101751.44;5044694;28;20859;-95
2023/03/05 09:46:53;;;;;;;3.92;1.55;;;;;;;5.45;90.78;101746.44;5025016;28;20535;-96
2023/03/05 09:49:46;;;;;;;3.25;1.50;;;;;;;5.49;90.24;101743.22;5022538;28;20056;-94
2023/03/05 09:52:42;;;;;;;4.00;1.60;;;;;;;5.50;90.00;101744.13;5025084;28;20048;-95
2023/03/05 09:55:22;;;;;;;3.20;1.50;;;;;;;5.51;88.60;101753.66;5024728;28;20065;-95
2023/03/05 09:57:56;;;;;;;3.70;1.38;;;;;;;5.50;88.74;101746.69;5017234;28;21011;-95
2023/03/05 10:00:29;;;;;;;3.15;1.23;;;;;;;5.45;87.98;101745.56;5042049;28;20632;-95
2023/03/05 10:02:59;;;;;;;3.70;1.27;;;;;;;5.38;88.76;101742.59;5042128;28;20041;-94
2023/03/05 10:05:36;;;;;;;3.70;1.30;;;;;;;5.35;88.27;101737.25;5044478;28;20025;-94
2023/03/05 10:08:04;;;;;;;3.70;1.20;;;;;;;5.32;89.19;101742.22;5024510;28;20039;-95
2023/03/05 10:10:41;;;;;;;3.85;1.20;;;;;;;5.33;89.22;101741.44;5023527;28;20028;-95
2023/03/05 10:13:44;;;;;;;3.63;1.33;;;;;;;5.35;89.90;101733.78;5047774;28;20107;-93
2023/03/05 10:16:34;;;;;;;3.88;1.13;;;;;;;5.39;89.80;101728.88;5032459;28;20574;-95
2023/03/05 10:19:37;;;;;;;3.10;1.05;;;;;;;5.44;89.18;101730.84;5047098;28;20025;-94
2023/03/05 10:22:21;;;;;;;4.13;1.33;;;;;;;5.47;89.20;101716.38;4998805;28;20061;-94
2023/03/05 10:25:16;;;;;;;5.13;1.30;;;;;;;5.50;88.70;101713.09;5013261;28;20087;-95
2023/03/05 10:28:04;;;;;;;2.95;1.13;;;;;;;5.64;88.74;101712.19;5027569;28;20033;-94
2023/03/05 10:31:00;;;;;;;3.30;1.33;;;;;;;5.77;88.50;101710.34;5002089;28;20038;-95
2023/03/05 10:33:44;;;;;;;3.15;1.30;;;;;;;5.82;87.48;101704.63;5008975;28;20033;-95
2023/03/05 10:36:45;;;;;;;3.42;1.20;;;;;;;5.87;87.53;101703.16;5010135;28;20064;-94
2023/03/05 10:39:16;;;;;;;3.20;1.42;;;;;;;5.87;86.80;101694.53;5024378;28;20045;-94
2023/03/05 10:42:09;;;;;;;4.15;1.48;;;;;;;5.84;86.58;101692.66;5001514;28;20061;-95
2023/03/05 10:44:42;;;;;;;4.50;1.30;;;;;;;5.74;86.53;101693.81;5024492;28;20040;-95
2023/03/05 10:47:36;;;;;;;3.70;1.40;;;;;;;5.68;86.56;101700.34;5025508;28;20120;-94
2023/03/05 10:50:18;;;;;;;2.97;1.38;;;;;;;5.62;86.44;101697.41;5007876;28;20031;-95
2023/03/05 10:52:50;;;;;;;3.97;1.52;;;;;;;5.52;87.24;101694.28;5008243;28;20033;-94
2023/03/05 10:55:22;;;;;;;4.43;1.60;;;;;;;5.46;88.26;101696.53;5009248;28;20084;-95
2023/03/05 10:57:49;;;;;;;3.58;1.48;;;;;;;5.45;88.71;101691.28;4999137;28;20491;-96
2023/03/05 11:00:27;;;;;;;3.75;1.40;;;;;;;5.44;89.09;101689.50;5017700;28;20054;-95
2023/03/05 11:03:08;;;;;;;3.85;1.20;;;;;;;5.40;88.91;101684.16;5025273;28;20116;-94
2023/03/05 11:05:41;;;;;;;3.05;1.10;;;;;;;5.43;87.79;101682.53;5008585;28;20041;-94
2023/03/05 11:08:31;;;;;;;2.70;0.95;;;;;;;5.46;87.02;101674.94;5027255;28;20032;-95
2023/03/05 11:11:05;;;;;;;3.22;1.10;;;;;;;5.48;86.66;101673.34;5024755;28;20462;-94
2023/03/05 11:13:32;;;;;;;1.88;0.80;;;;;;;5.54;86.39;101668.53;5024295;28;20071;-94
2023/03/05 11:16:06;;;;;;;2.03;0.90;;;;;;;5.65;86.98;101659.69;5025582;28;20029;-94
2023/03/05 11:18:36;;;;;;;2.45;1.10;;;;;;;5.75;87.24;101656.81;5026194;28;20029;-94
2023/03/05 11:21:26;;;;;;;3.10;1.20;;;;;;;5.85;86.13;101655.66;5024257;28;20033;-95
2023/03/05 11:24:15;;;;;;;2.75;0.95;;;;;;;5.88;84.31;101649.75;5007838;28;20494;-94
2023/03/05 11:26:55;;;;;;;2.27;0.90;;;;;;;5.96;84.81;101645.00;5008380;28;20037;-95
2023/03/05 11:29:24;;;;;;;2.63;1.08;;;;;;;6.09;86.48;101643.19;5007484;28;20075;-95
2023/03/05 11:31:51;;;;;;;1.98;0.90;;;;;;;6.19;85.00;101644.59;5006026;28;20472;-94
2023/03/05 11:34:16;;;;;;;3.10;1.15;;;;;;;6.26;81.01;101640.66;5023844;28;20379;-95
2023/03/05 11:37:03;;;;;;;1.50;0.80;;;;;;;6.26;81.82;101645.81;5008114;28;20040;-95
2023/03/05 11:39:31;;;;;;;1.85;0.80;;;;;;;6.32;83.01;101640.97;5023197;28;20033;-95
2023/03/05 11:42:23;;;;;;;3.07;0.87;;;;;;;6.37;81.51;101634.34;5006737;28;20029;-95